47V weather

Curtis Municipal Airport
Curtis, Nebraska, United States

Public forecast

Using degrees Fahrenheit for public forecast. Weather courtesy of forecast.io.

Closest aviation weather report (METAR) to Curtis Municipal Airport

Closest report is Mc Cook Ben Nelson Regional Airport, 26.5 nm (49.0 km) SSW. Retrieved 2019/10/14 15:53 UTC (48 minutes ago):

KMCK 141553Z AUTO 00000KT 10SM CLR 11/01 A2990 RMK AO2 SLP126 T01060011

Closest aviation forecast (TAF) to Curtis Municipal Airport

Closest forecast is Mc Cook Ben Nelson Regional Airport, 26.5 nm (49.0 km) SSW. Retrieved 2019/10/14 12:24 UTC (4 hours ago):

TAF KMCK 141121Z 1412/1512 VRB04KT P6SM SKC FM141700 20007KT P6SM SKC FM142100 23006KT P6SM SKC FM142300 VRB03KT P6SM SKC FM150500 35015G23KT P6SM SKC